createdAt,value
2018-07-15T00:00:50.356Z,10.2
2018-07-15T00:02:49.545Z,10.4
2018-07-15T00:04:50.170Z,10.0
2018-07-15T00:06:49.567Z,10.5
2018-07-15T00:08:49.759Z,10.5
2018-07-15T00:10:49.933Z,10.9
2018-07-15T00:12:50.292Z,11.1
2018-07-15T00:14:50.576Z,11.0
2018-07-15T00:16:49.873Z,11.0
2018-07-15T00:18:50.316Z,10.9
2018-07-15T00:20:50.512Z,10.9
2018-07-15T00:22:49.651Z,10.5
2018-07-15T00:24:49.919Z,10.5
2018-07-15T00:26:50.207Z,10.2
2018-07-15T00:28:50.369Z,10.2
2018-07-15T00:30:49.589Z,11.0
2018-07-15T00:32:49.728Z,11.0
2018-07-15T00:34:50.109Z,11.1
2018-07-15T00:36:50.375Z,10.8
2018-07-15T00:38:49.666Z,10.8
2018-07-15T00:40:49.930Z,10.6
2018-07-15T00:42:50.058Z,11.0
2018-07-15T00:44:50.209Z,11.7
2018-07-15T00:46:49.584Z,12.5
2018-07-15T00:48:49.798Z,12.5
2018-07-15T00:50:49.891Z,12.6
2018-07-15T00:52:50.244Z,11.6
2018-07-15T00:54:50.354Z,11.9
2018-07-15T00:56:49.606Z,11.9
2018-07-15T00:58:49.789Z,11.2
2018-07-15T01:00:49.957Z,11.2
2018-07-15T01:02:49.921Z,12.0
2018-07-15T01:04:50.420Z,11.0
2018-07-15T01:06:49.700Z,11.0
2018-07-15T01:08:49.844Z,12.0
2018-07-15T01:10:50.023Z,11.9
2018-07-15T01:12:50.181Z,12.0
2018-07-15T01:14:50.270Z,11.8
2018-07-15T01:16:49.548Z,11.8
2018-07-15T01:18:49.935Z,12.5
2018-07-15T01:20:50.219Z,11.8
2018-07-15T01:22:49.626Z,12.0
2018-07-15T01:24:49.741Z,12.0
2018-07-15T01:26:50.063Z,12.6
2018-07-15T01:28:50.432Z,12.3
2018-07-15T01:30:49.623Z,12.3
2018-07-15T01:32:49.806Z,11.9
2018-07-15T01:34:50.243Z,11.9
2018-07-15T01:36:50.501Z,11.4
2018-07-15T01:38:49.806Z,11.2
2018-07-15T01:40:49.983Z,11.4
2018-07-15T01:42:50.114Z,11.8
2018-07-15T01:44:50.272Z,11.8
2018-07-15T01:46:49.593Z,11.3
2018-07-15T01:48:49.782Z,11.7
2018-07-15T01:50:49.958Z,11.5
2018-07-15T01:52:50.104Z,11.2
2018-07-15T01:54:50.306Z,11.2
2018-07-15T01:56:49.592Z,11.2
2018-07-15T01:58:49.752Z,10.7
2018-07-15T02:00:49.909Z,10.8
2018-07-15T02:02:50.053Z,10.8
2018-07-15T02:04:50.479Z,10.6
2018-07-15T02:06:49.707Z,10.5
2018-07-15T02:08:50.041Z,11.0
2018-07-15T02:10:50.212Z,11.0
2018-07-15T02:12:49.543Z,11.8
2018-07-15T02:14:49.729Z,11.8
2018-07-15T02:16:50.137Z,11.1
2018-07-15T02:18:50.381Z,11.0
2018-07-15T02:20:49.619Z,11.2
2018-07-15T02:22:49.774Z,11.2
2018-07-15T02:24:49.937Z,11.5
2018-07-15T02:26:50.220Z,11.2
2018-07-15T02:28:50.337Z,11.4
2018-07-15T02:30:49.570Z,11.6
2018-07-15T02:32:49.866Z,11.8
2018-07-15T02:34:50.446Z,11.8
2018-07-15T02:36:50.042Z,11.6
2018-07-15T02:38:49.661Z,11.6
2018-07-15T02:40:49.865Z,11.2
2018-07-15T02:42:50.236Z,11.0
2018-07-15T02:44:49.536Z,11.0
2018-07-15T02:46:50.109Z,11.1
2018-07-15T02:48:50.304Z,11.5
2018-07-15T02:50:49.554Z,11.6
2018-07-15T02:52:49.796Z,11.6
2018-07-15T02:54:49.941Z,11.4
2018-07-15T02:56:50.287Z,11.5
2018-07-15T02:58:50.429Z,11.4
2018-07-15T03:00:49.704Z,11.2
2018-07-15T03:02:49.851Z,11.2
2018-07-15T03:04:50.215Z,11.8
2018-07-15T03:06:49.614Z,11.5
2018-07-15T03:08:49.782Z,11.8
2018-07-15T03:10:49.914Z,12.0
2018-07-15T03:12:50.221Z,12.0
2018-07-15T03:14:49.533Z,11.7
2018-07-15T03:16:49.881Z,11.8
2018-07-15T03:18:50.067Z,12.3
2018-07-15T03:20:50.220Z,12.5
2018-07-15T03:22:50.448Z,12.5
2018-07-15T03:24:49.748Z,12.5
2018-07-15T03:26:50.095Z,12.2
2018-07-15T03:28:50.247Z,12.4
2018-07-15T03:30:50.376Z,11.5
2018-07-15T03:32:49.564Z,11.5
2018-07-15T03:34:50.133Z,12.5
2018-07-15T03:36:50.411Z,12.4
2018-07-15T03:38:49.554Z,12.5
2018-07-15T03:40:49.757Z,12.0
2018-07-15T03:42:49.930Z,12.0
2018-07-15T03:44:50.043Z,12.4
2018-07-15T03:46:50.411Z,12.0
2018-07-15T03:48:49.619Z,11.8
2018-07-15T03:50:49.751Z,11.8
2018-07-15T03:52:49.992Z,12.3
2018-07-15T03:54:50.218Z,12.2
2018-07-15T03:56:49.590Z,12.1
2018-07-15T03:58:49.862Z,11.8
2018-07-15T04:00:50.230Z,11.8
2018-07-15T04:02:49.974Z,11.6
2018-07-15T04:04:50.406Z,11.9
2018-07-15T04:06:49.751Z,11.2
2018-07-15T04:08:50.046Z,11.5
2018-07-15T04:10:49.615Z,11.5
2018-07-15T04:12:49.763Z,11.3
2018-07-15T04:14:49.922Z,11.0
2018-07-15T04:16:50.165Z,11.0
2018-07-15T04:18:50.354Z,10.7
2018-07-15T04:20:49.603Z,10.7
2018-07-15T04:22:49.753Z,10.2
2018-07-15T04:24:49.902Z,9.9
2018-07-15T04:26:50.304Z,10.2
2018-07-15T04:28:50.538Z,10.5
2018-07-15T04:30:49.798Z,10.5
2018-07-15T04:32:49.955Z,10.8
2018-07-15T04:34:50.265Z,10.7
2018-07-15T04:36:49.609Z,10.2
2018-07-15T04:38:49.761Z,10.2
2018-07-15T04:40:49.922Z,9.9
2018-07-15T04:42:50.025Z,9.7
2018-07-15T04:44:50.284Z,10.2
2018-07-15T04:46:49.630Z,9.7
2018-07-15T04:48:49.769Z,9.7
2018-07-15T04:50:49.915Z,9.8
2018-07-15T04:52:50.048Z,9.5
2018-07-15T04:54:50.156Z,8.9
2018-07-15T04:56:50.472Z,9.1
2018-07-15T04:58:49.659Z,9.1
2018-07-15T05:00:49.845Z,9.5
2018-07-15T05:02:49.984Z,8.9
2018-07-15T05:04:50.346Z,8.8
2018-07-15T05:06:49.831Z,9.1
2018-07-15T05:08:49.965Z,9.1
2018-07-15T05:10:50.138Z,8.5
2018-07-15T05:12:50.280Z,8.8
2018-07-15T05:14:50.374Z,8.8
2018-07-15T05:16:49.900Z,8.8
2018-07-15T05:18:50.031Z,8.9
2018-07-15T05:20:50.195Z,8.6
2018-07-15T05:22:50.403Z,8.4
2018-07-15T05:24:49.652Z,8.4
2018-07-15T05:26:50.185Z,8.3
2018-07-15T05:28:50.323Z,8.4
2018-07-15T05:30:50.498Z,8.6
2018-07-15T05:32:49.618Z,8.6
2018-07-15T05:34:50.080Z,8.5
2018-07-15T05:36:50.494Z,8.5
2018-07-15T05:38:49.623Z,9.1
2018-07-15T05:40:49.784Z,8.7
2018-07-15T05:42:49.974Z,8.2
2018-07-15T05:44:50.257Z,8.3
2018-07-15T05:46:49.546Z,8.3
2018-07-15T05:48:49.721Z,9.4
2018-07-15T05:50:49.915Z,8.8
2018-07-15T05:52:50.098Z,9.4
2018-07-15T05:54:50.313Z,9.4
2018-07-15T05:56:49.633Z,9.2
2018-07-15T05:58:49.753Z,9.1
2018-07-15T06:00:49.927Z,9.0
2018-07-15T06:02:50.021Z,8.2
2018-07-15T06:04:50.398Z,8.2
2018-07-15T06:06:49.837Z,8.8
2018-07-15T06:08:50.054Z,8.5
2018-07-15T06:10:50.381Z,8.6
2018-07-15T06:12:50.311Z,8.5
2018-07-15T06:14:49.553Z,8.5
2018-07-15T06:16:49.865Z,8.4
2018-07-15T06:18:50.108Z,8.2
2018-07-15T06:20:50.287Z,8.0
2018-07-15T06:22:50.760Z,8.0
2018-07-15T06:24:49.822Z,8.0
2018-07-15T06:26:50.157Z,7.8
2018-07-15T06:28:50.372Z,7.3
2018-07-15T06:30:49.556Z,6.9
2018-07-15T06:32:49.745Z,6.9
2018-07-15T06:34:50.210Z,6.9
2018-07-15T06:36:49.533Z,6.0
2018-07-15T06:38:49.706Z,6.1
2018-07-15T06:40:49.807Z,5.8
2018-07-15T06:42:50.087Z,5.8
2018-07-15T06:44:50.249Z,7.2
2018-07-15T06:46:49.659Z,5.8
2018-07-15T06:48:49.835Z,5.4
2018-07-15T06:50:49.981Z,6.9
2018-07-15T06:52:50.162Z,5.6
2018-07-15T06:54:50.313Z,5.6
2018-07-15T06:56:49.579Z,5.3
2018-07-15T06:58:49.755Z,5.9
2018-07-15T07:00:49.962Z,5.9
2018-07-15T07:02:50.119Z,5.4
2018-07-15T07:04:49.598Z,6.4
2018-07-15T07:06:49.892Z,6.1
2018-07-15T07:08:50.018Z,6.0
2018-07-15T07:10:50.217Z,5.9
2018-07-15T07:12:50.446Z,5.9
2018-07-15T07:14:49.602Z,6.2
2018-07-15T07:16:49.875Z,6.3
2018-07-15T07:18:50.076Z,6.3
2018-07-15T07:20:50.184Z,6.2
2018-07-15T07:22:49.538Z,6.2
2018-07-15T07:24:49.674Z,6.3
2018-07-15T07:26:49.932Z,6.1
2018-07-15T07:28:50.196Z,5.9
2018-07-15T07:30:49.776Z,5.9
2018-07-15T07:32:49.982Z,6.1
2018-07-15T07:34:50.377Z,5.9
2018-07-15T07:36:49.730Z,5.8
2018-07-15T07:38:50.147Z,6.5
2018-07-15T07:40:49.994Z,6.5
2018-07-15T07:42:50.151Z,6.4
2018-07-15T07:44:50.425Z,6.5
2018-07-15T07:46:49.774Z,6.1
2018-07-15T07:48:50.105Z,6.4
2018-07-15T07:50:50.223Z,6.4
2018-07-15T07:52:50.483Z,6.3
2018-07-15T07:54:49.716Z,5.7
2018-07-15T07:56:49.975Z,6.2
2018-07-15T07:58:50.127Z,6.4
2018-07-15T08:00:50.426Z,6.4
2018-07-15T08:02:49.665Z,5.9
2018-07-15T08:04:50.037Z,6.0
2018-07-15T08:06:50.323Z,6.3
2018-07-15T08:08:49.536Z,6.3
2018-07-15T08:10:49.755Z,7.0
2018-07-15T08:12:49.936Z,6.7
2018-07-15T08:14:50.220Z,6.6
2018-07-15T08:16:50.476Z,7.1
2018-07-15T08:18:49.646Z,7.1
2018-07-15T08:20:49.745Z,6.9
2018-07-15T08:22:49.928Z,6.5
2018-07-15T08:24:50.092Z,7.0
2018-07-15T08:26:49.537Z,7.4
2018-07-15T08:28:49.944Z,7.0
2018-07-15T08:30:50.173Z,7.0
2018-07-15T08:32:50.120Z,6.9
2018-07-15T08:34:49.554Z,7.1
2018-07-15T08:36:50.031Z,6.4
2018-07-15T08:38:50.318Z,6.4
2018-07-15T08:40:49.797Z,6.4
2018-07-15T08:42:50.505Z,6.2
2018-07-15T08:44:49.832Z,6.5
2018-07-15T08:46:50.263Z,6.4
2018-07-15T08:48:50.381Z,6.4
2018-07-15T08:50:49.594Z,6.5
2018-07-15T08:52:49.929Z,6.0
2018-07-15T08:54:50.077Z,6.5
2018-07-15T08:56:50.385Z,5.9
2018-07-15T08:58:49.662Z,5.9
2018-07-15T09:00:49.861Z,6.2
2018-07-15T09:02:50.044Z,6.3
2018-07-15T09:04:50.378Z,6.3
2018-07-15T09:06:49.815Z,6.3
2018-07-15T09:08:50.086Z,6.3
2018-07-15T09:10:50.234Z,6.5
2018-07-15T09:12:50.364Z,6.0
2018-07-15T09:14:49.630Z,5.9
2018-07-15T09:16:50.107Z,5.9
2018-07-15T09:18:50.278Z,5.6
2018-07-15T09:20:50.525Z,5.3
2018-07-15T09:22:49.666Z,6.0
2018-07-15T09:24:49.791Z,5.9
2018-07-15T09:26:50.205Z,5.9
2018-07-15T09:28:50.395Z,5.7
2018-07-15T09:30:49.578Z,5.5
2018-07-15T09:32:49.725Z,5.1
2018-07-15T09:34:50.134Z,5.4
2018-07-15T09:36:50.446Z,5.4
2018-07-15T09:38:49.685Z,4.8
2018-07-15T09:40:49.964Z,5.1
2018-07-15T09:42:50.057Z,4.7
2018-07-15T09:44:50.368Z,4.7
2018-07-15T09:46:49.643Z,4.5
2018-07-15T09:48:49.783Z,4.1
2018-07-15T09:50:49.930Z,4.5
2018-07-15T09:52:50.112Z,3.9
2018-07-15T09:54:50.368Z,4.3
2018-07-15T09:56:49.719Z,4.3
2018-07-15T09:58:49.888Z,3.8
2018-07-15T10:00:50.113Z,4.8
2018-07-15T10:02:50.122Z,4.5
2018-07-15T10:04:49.545Z,4.2
2018-07-15T10:06:49.909Z,4.2
2018-07-15T10:08:50.087Z,4.2
2018-07-15T10:10:50.178Z,3.9
2018-07-15T10:12:50.456Z,3.9
2018-07-15T10:14:49.611Z,3.9
2018-07-15T10:16:49.835Z,4.0
2018-07-15T10:18:50.083Z,3.2
2018-07-15T10:20:50.470Z,3.6
2018-07-15T10:22:49.635Z,3.2
2018-07-15T10:24:50.455Z,3.2
2018-07-15T10:26:49.782Z,3.4
2018-07-15T10:28:49.932Z,3.6
2018-07-15T10:30:50.134Z,3.2
2018-07-15T10:32:50.239Z,3.5
2018-07-15T10:34:49.707Z,3.5
2018-07-15T10:36:50.048Z,3.3
2018-07-15T10:38:50.178Z,3.1
2018-07-15T10:40:50.303Z,3.4
2018-07-15T10:42:49.512Z,3.7
2018-07-15T10:44:49.666Z,3.7
2018-07-15T10:46:50.048Z,3.7
2018-07-15T10:48:50.172Z,3.7
2018-07-15T10:50:50.281Z,3.9
2018-07-15T10:52:49.707Z,3.9
2018-07-15T10:54:50.121Z,3.7
2018-07-15T10:56:50.523Z,4.3
2018-07-15T10:58:49.668Z,4.1
2018-07-15T11:00:49.923Z,3.6
2018-07-15T11:02:50.209Z,3.6
2018-07-15T11:04:49.590Z,4.0
2018-07-15T11:06:50.010Z,3.4
2018-07-15T11:08:50.181Z,3.5
2018-07-15T11:10:50.379Z,3.5
2018-07-15T11:12:50.496Z,3.3
2018-07-15T11:14:49.599Z,3.2
2018-07-15T11:16:49.878Z,3.2
2018-07-15T11:18:50.089Z,2.8
2018-07-15T11:20:50.257Z,3.0
2018-07-15T11:22:50.400Z,3.0
2018-07-15T11:24:49.534Z,2.7
2018-07-15T11:26:49.888Z,3.1
2018-07-15T11:28:50.202Z,2.6
2018-07-15T11:30:50.458Z,3.0
2018-07-15T11:32:50.468Z,3.0
2018-07-15T11:34:49.854Z,2.6
2018-07-15T11:36:50.099Z,2.7
2018-07-15T11:38:50.347Z,2.6
2018-07-15T11:40:49.525Z,2.6
2018-07-15T11:42:49.678Z,2.8
2018-07-15T11:44:49.781Z,2.7
2018-07-15T11:46:50.065Z,2.7
2018-07-15T11:48:50.300Z,3.0
2018-07-15T11:50:50.501Z,3.0
2018-07-15T11:52:49.735Z,2.7
2018-07-15T11:54:49.899Z,3.0
2018-07-15T11:56:50.253Z,3.4
2018-07-15T11:58:50.364Z,3.2
2018-07-15T12:00:49.543Z,3.2
2018-07-15T12:02:49.721Z,3.5
2018-07-15T12:04:50.161Z,3.4
2018-07-15T12:06:50.365Z,3.5
2018-07-15T12:08:49.524Z,3.5
2018-07-15T12:10:49.755Z,5.9
2018-07-15T12:12:49.908Z,3.5
2018-07-15T12:14:50.055Z,5.0
2018-07-15T12:16:50.288Z,4.9
2018-07-15T12:18:50.507Z,5.8
2018-07-15T12:20:49.608Z,5.8
2018-07-15T12:22:49.861Z,4.1
2018-07-15T12:24:50.030Z,4.6
2018-07-15T12:26:50.424Z,6.1
2018-07-15T12:28:49.553Z,6.1
2018-07-15T12:30:49.664Z,7.0
2018-07-15T12:32:49.806Z,7.4
2018-07-15T12:34:50.161Z,7.4
2018-07-15T12:36:49.604Z,5.4
2018-07-15T12:38:49.774Z,5.4
2018-07-15T12:40:49.917Z,6.8
2018-07-15T12:42:50.099Z,5.8
2018-07-15T12:44:50.233Z,5.8
2018-07-15T12:46:49.656Z,5.6
2018-07-15T12:48:49.808Z,5.6
2018-07-15T12:50:49.923Z,5.6
2018-07-15T12:52:50.112Z,5.6
2018-07-15T12:54:50.253Z,3.9
2018-07-15T12:56:49.585Z,3.7
2018-07-15T12:58:49.795Z,3.7
2018-07-15T13:00:49.922Z,3.9
2018-07-15T13:02:50.203Z,4.2
2018-07-15T13:04:49.610Z,4.4
2018-07-15T13:06:49.889Z,4.4
2018-07-15T13:08:50.024Z,4.4
2018-07-15T13:10:50.157Z,4.3
2018-07-15T13:12:50.441Z,4.4
2018-07-15T13:14:49.552Z,4.2
2018-07-15T13:16:49.792Z,4.2
2018-07-15T13:18:50.120Z,3.6
2018-07-15T13:20:50.490Z,3.8
2018-07-15T13:22:49.632Z,4.1
2018-07-15T13:24:49.890Z,4.0
2018-07-15T13:26:50.176Z,4.0
2018-07-15T13:28:50.339Z,4.1
2018-07-15T13:30:49.622Z,3.8
2018-07-15T13:32:49.767Z,4.0
2018-07-15T13:34:50.287Z,4.1
2018-07-15T13:36:49.538Z,4.1
2018-07-15T13:38:49.653Z,4.1
2018-07-15T13:40:49.798Z,3.8
2018-07-15T13:42:49.957Z,4.0
2018-07-15T13:44:50.131Z,4.1
2018-07-15T13:46:50.385Z,4.1
2018-07-15T13:48:50.500Z,4.6
2018-07-15T13:50:49.744Z,4.4
2018-07-15T13:52:49.917Z,4.4
2018-07-15T13:54:50.040Z,4.4
2018-07-15T13:56:50.376Z,4.4
2018-07-15T13:58:49.617Z,4.4
2018-07-15T14:00:49.744Z,4.4
2018-07-15T14:02:50.137Z,4.3
2018-07-15T14:04:50.487Z,4.6
2018-07-15T14:06:49.806Z,4.6
2018-07-15T14:08:49.964Z,4.3
2018-07-15T14:10:50.161Z,4.5
2018-07-15T14:12:50.440Z,4.1
2018-07-15T14:14:49.546Z,4.3
2018-07-15T14:16:49.848Z,4.3
2018-07-15T14:18:50.093Z,3.9
2018-07-15T14:20:50.369Z,3.7
2018-07-15T14:22:49.538Z,3.9
2018-07-15T14:24:49.667Z,3.9
2018-07-15T14:26:49.972Z,3.6
2018-07-15T14:28:50.180Z,3.9
2018-07-15T14:30:50.277Z,3.8
2018-07-15T14:32:50.447Z,3.7
2018-07-15T14:34:49.881Z,3.7
2018-07-15T14:36:50.186Z,3.6
2018-07-15T14:38:50.303Z,3.7
2018-07-15T14:40:50.497Z,3.6
2018-07-15T14:42:49.723Z,3.7
2018-07-15T14:44:49.860Z,3.7
2018-07-15T14:46:50.227Z,3.6
2018-07-15T14:48:50.376Z,3.5
2018-07-15T14:50:49.606Z,3.2
2018-07-15T14:52:49.768Z,3.2
2018-07-15T14:54:50.038Z,3.2
2018-07-15T14:56:50.341Z,3.2
2018-07-15T14:58:50.490Z,3.2
2018-07-15T15:00:49.814Z,3.2
2018-07-15T15:02:49.948Z,3.0
2018-07-15T15:04:50.344Z,3.0
2018-07-15T15:06:49.627Z,3.2
2018-07-15T15:08:49.806Z,3.2
2018-07-15T15:10:49.968Z,3.0
2018-07-15T15:12:50.196Z,3.0
2018-07-15T15:14:50.379Z,3.3
2018-07-15T15:16:49.806Z,2.9
2018-07-15T15:18:50.037Z,3.2
2018-07-15T15:20:50.190Z,3.2
2018-07-15T15:22:50.315Z,3.1
2018-07-15T15:24:50.364Z,2.9
2018-07-15T15:26:49.783Z,3.9
2018-07-15T15:28:49.956Z,3.0
2018-07-15T15:30:50.148Z,3.1
2018-07-15T15:32:50.278Z,3.1
2018-07-15T15:34:49.759Z,3.0
2018-07-15T15:36:50.051Z,2.9
2018-07-15T15:38:50.337Z,2.9
2018-07-15T15:40:49.549Z,2.9
2018-07-15T15:42:49.767Z,2.6
2018-07-15T15:44:50.378Z,2.7
2018-07-15T15:46:49.729Z,2.8
2018-07-15T15:48:49.877Z,2.9
2018-07-15T15:50:50.043Z,2.9
2018-07-15T15:52:50.156Z,2.9
2018-07-15T15:54:50.312Z,2.7
2018-07-15T15:56:49.716Z,2.9
2018-07-15T15:58:49.794Z,3.1
2018-07-15T16:00:50.026Z,3.1
2018-07-15T16:02:50.233Z,2.7
2018-07-15T16:04:49.638Z,3.1
2018-07-15T16:06:50.015Z,3.3
2018-07-15T16:08:50.299Z,3.4
2018-07-15T16:10:50.414Z,3.4
2018-07-15T16:12:49.669Z,3.3
2018-07-15T16:14:49.790Z,3.3
2018-07-15T16:16:50.064Z,3.1
2018-07-15T16:18:50.228Z,3.1
2018-07-15T16:20:50.339Z,3.2
2018-07-15T16:22:50.499Z,3.4
2018-07-15T16:24:49.605Z,3.3
2018-07-15T16:26:49.884Z,3.4
2018-07-15T16:28:50.051Z,3.4
2018-07-15T16:30:50.208Z,3.2
2018-07-15T16:32:50.308Z,3.4
2018-07-15T16:34:49.690Z,3.3
2018-07-15T16:36:50.099Z,3.1
2018-07-15T16:38:50.198Z,3.1
2018-07-15T16:40:50.470Z,3.1
2018-07-15T16:42:49.565Z,3.2
2018-07-15T16:44:49.734Z,3.1
2018-07-15T16:46:50.073Z,3.1
2018-07-15T16:48:50.302Z,3.0
2018-07-15T16:50:50.490Z,3.6
2018-07-15T16:52:49.640Z,3.2
2018-07-15T16:54:49.892Z,3.2
2018-07-15T16:56:50.187Z,3.1
2018-07-15T16:58:50.341Z,3.1
2018-07-15T17:00:49.568Z,3.2
2018-07-15T17:02:49.779Z,3.5
2018-07-15T17:04:50.218Z,3.3
2018-07-15T17:06:50.541Z,3.5
2018-07-15T17:08:50.050Z,3.5
2018-07-15T17:10:50.208Z,3.2
2018-07-15T17:12:50.461Z,3.3
2018-07-15T17:14:49.568Z,3.1
2018-07-15T17:16:49.913Z,3.1
2018-07-15T17:18:50.156Z,3.6
2018-07-15T17:20:50.267Z,3.9
2018-07-15T17:22:50.409Z,3.9
2018-07-15T17:24:49.602Z,3.7
2018-07-15T17:26:49.804Z,3.7
2018-07-15T17:28:49.929Z,4.1
2018-07-15T17:30:50.195Z,4.3
2018-07-15T17:32:50.375Z,3.5
2018-07-15T17:34:49.939Z,3.7
2018-07-15T17:36:50.197Z,3.7
2018-07-15T17:38:50.436Z,3.5
2018-07-15T17:40:49.744Z,3.9
2018-07-15T17:42:49.934Z,3.3
2018-07-15T17:44:50.021Z,3.7
2018-07-15T17:46:50.330Z,3.7
2018-07-15T17:48:50.469Z,3.4
2018-07-15T17:50:49.605Z,3.3
2018-07-15T17:52:49.832Z,3.5
2018-07-15T17:54:50.005Z,3.6
2018-07-15T17:56:50.250Z,3.6
2018-07-15T17:58:49.738Z,3.5
2018-07-15T18:00:49.543Z,3.5
2018-07-15T18:02:49.734Z,3.7
2018-07-15T18:04:50.289Z,3.7
2018-07-15T18:06:50.208Z,3.5
2018-07-15T18:08:50.358Z,3.4
2018-07-15T18:10:49.661Z,3.6
2018-07-15T18:12:49.780Z,3.6
2018-07-15T18:14:49.992Z,3.6
2018-07-15T18:16:50.329Z,4.0
2018-07-15T18:18:50.497Z,3.9
2018-07-15T18:20:49.774Z,3.8
2018-07-15T18:22:50.092Z,3.9
2018-07-15T18:24:50.394Z,3.9
2018-07-15T18:26:49.694Z,4.0
2018-07-15T18:28:49.799Z,3.7
2018-07-15T18:30:50.002Z,3.7
2018-07-15T18:32:50.108Z,3.7
2018-07-15T18:34:50.454Z,3.6
2018-07-15T18:36:49.816Z,4.1
2018-07-15T18:38:49.968Z,3.9
2018-07-15T18:40:50.083Z,4.2
2018-07-15T18:42:50.346Z,4.2
2018-07-15T18:44:50.640Z,4.3
2018-07-15T18:46:50.232Z,4.5
2018-07-15T18:48:49.538Z,4.4
2018-07-15T18:50:49.698Z,4.7
2018-07-15T18:52:49.877Z,4.7
2018-07-15T18:54:49.961Z,4.7
2018-07-15T18:56:50.355Z,4.9
2018-07-15T18:58:49.553Z,4.9
2018-07-15T19:00:49.673Z,5.0
2018-07-15T19:02:49.772Z,5.1
2018-07-15T19:04:50.286Z,5.1
2018-07-15T19:06:49.678Z,4.8
2018-07-15T19:08:49.846Z,5.4
2018-07-15T19:10:50.042Z,6.4
2018-07-15T19:12:50.198Z,5.4
2018-07-15T19:14:50.312Z,5.4
2018-07-15T19:16:49.685Z,5.0
2018-07-15T19:18:49.766Z,5.0
2018-07-15T19:20:49.925Z,4.9
2018-07-15T19:22:50.127Z,4.9
2018-07-15T19:24:50.225Z,5.0
2018-07-15T19:26:49.523Z,5.1
2018-07-15T19:28:49.683Z,5.1
2018-07-15T19:30:49.755Z,5.3
2018-07-15T19:32:49.939Z,5.3
2018-07-15T19:34:49.539Z,5.3
2018-07-15T19:36:49.883Z,5.3
2018-07-15T19:38:50.048Z,5.4
2018-07-15T19:40:50.367Z,5.4
2018-07-15T19:42:49.615Z,5.5
2018-07-15T19:44:49.924Z,5.7
2018-07-15T19:46:50.178Z,5.5
2018-07-15T19:48:50.348Z,5.7
2018-07-15T19:50:49.535Z,5.7
2018-07-15T19:52:49.637Z,5.9
2018-07-15T19:54:49.795Z,5.7
2018-07-15T19:56:50.142Z,5.8
2018-07-15T19:58:50.226Z,5.9
2018-07-15T20:00:50.493Z,5.9
2018-07-15T20:02:49.860Z,5.8
2018-07-15T20:04:50.268Z,6.0
2018-07-15T20:06:49.707Z,6.6
2018-07-15T20:08:50.510Z,7.4
2018-07-15T20:10:49.658Z,7.4
2018-07-15T20:12:49.963Z,6.5
2018-07-15T20:14:50.154Z,6.0
2018-07-15T20:16:49.539Z,6.4
2018-07-15T20:18:49.669Z,6.5
2018-07-15T20:20:50.028Z,6.5
2018-07-15T20:22:49.638Z,6.4
2018-07-15T20:24:49.832Z,5.8
2018-07-15T20:26:50.115Z,5.8
2018-07-15T20:28:50.331Z,6.2
2018-07-15T20:30:50.505Z,6.2
2018-07-15T20:32:49.625Z,6.6
2018-07-15T20:34:50.037Z,6.6
2018-07-15T20:36:50.335Z,6.5
2018-07-15T20:38:50.482Z,6.7
2018-07-15T20:40:49.718Z,6.7
2018-07-15T20:42:49.873Z,7.0
2018-07-15T20:44:50.030Z,7.0
2018-07-15T20:46:50.310Z,7.0
2018-07-15T20:48:49.531Z,7.0
2018-07-15T20:50:49.718Z,7.1
2018-07-15T20:52:49.921Z,7.1
2018-07-15T20:54:50.089Z,7.6
2018-07-15T20:56:50.459Z,7.1
2018-07-15T20:58:49.618Z,7.1
2018-07-15T21:00:49.782Z,7.2
2018-07-15T21:02:49.957Z,8.0
2018-07-15T21:04:50.267Z,7.3
2018-07-15T21:06:49.634Z,7.6
2018-07-15T21:08:49.858Z,7.6
2018-07-15T21:10:50.019Z,7.5
2018-07-15T21:12:50.168Z,7.3
2018-07-15T21:14:50.341Z,7.1
2018-07-15T21:16:49.627Z,7.1
2018-07-15T21:18:49.815Z,6.9
2018-07-15T21:20:49.953Z,7.7
2018-07-15T21:22:50.075Z,7.8
2018-07-15T21:24:50.236Z,7.9
2018-07-15T21:26:49.745Z,7.9
2018-07-15T21:28:49.967Z,7.9
2018-07-15T21:30:50.052Z,7.9
2018-07-15T21:32:50.204Z,7.9
2018-07-15T21:34:49.766Z,7.7
2018-07-15T21:36:50.031Z,7.8
2018-07-15T21:38:50.277Z,7.8
2018-07-15T21:40:50.453Z,7.9
2018-07-15T21:42:49.728Z,8.4
2018-07-15T21:44:49.877Z,7.8
2018-07-15T21:46:50.141Z,7.8
2018-07-15T21:48:50.327Z,7.6
2018-07-15T21:50:50.456Z,7.0
2018-07-15T21:52:49.590Z,6.9
2018-07-15T21:54:49.700Z,6.9
2018-07-15T21:56:49.971Z,6.9
2018-07-15T21:58:50.109Z,6.5
2018-07-15T22:00:50.302Z,6.7
2018-07-15T22:02:49.659Z,7.7
2018-07-15T22:04:50.251Z,7.3
2018-07-15T22:06:49.615Z,7.3
2018-07-15T22:08:49.833Z,7.1
2018-07-15T22:10:49.972Z,7.8
2018-07-15T22:12:50.231Z,7.8
2018-07-15T22:14:50.416Z,7.2
2018-07-15T22:16:49.680Z,7.2
2018-07-15T22:18:49.790Z,7.6
2018-07-15T22:20:49.888Z,7.7
2018-07-15T22:22:50.071Z,7.5
2018-07-15T22:24:50.258Z,7.5
2018-07-15T22:26:49.586Z,7.5
2018-07-15T22:28:49.774Z,8.0
2018-07-15T22:30:49.870Z,7.9
2018-07-15T22:32:50.014Z,7.9
2018-07-15T22:34:49.669Z,7.9
2018-07-15T22:36:50.118Z,8.2
2018-07-15T22:38:50.293Z,7.9
2018-07-15T22:40:49.527Z,8.2
2018-07-15T22:42:49.637Z,7.9
2018-07-15T22:44:49.880Z,7.9
2018-07-15T22:46:50.180Z,7.9
2018-07-15T22:48:50.316Z,8.3
2018-07-15T22:50:50.416Z,8.6
2018-07-15T22:52:49.609Z,8.8
2018-07-15T22:54:49.806Z,8.8
2018-07-15T22:56:50.110Z,8.3
2018-07-15T22:58:50.265Z,8.2
2018-07-15T23:00:50.526Z,8.6
2018-07-15T23:02:49.760Z,8.2
2018-07-15T23:04:50.207Z,8.2
2018-07-15T23:06:49.555Z,8.7
2018-07-15T23:08:49.701Z,8.7
2018-07-15T23:10:49.868Z,8.7
2018-07-15T23:12:50.174Z,9.0
2018-07-15T23:14:50.276Z,9.0
2018-07-15T23:16:49.549Z,8.6
2018-07-15T23:18:49.691Z,9.1
2018-07-15T23:20:49.858Z,8.4
2018-07-15T23:22:50.088Z,8.4
2018-07-15T23:24:50.201Z,8.9
2018-07-15T23:26:49.613Z,8.9
2018-07-15T23:28:49.799Z,8.8
2018-07-15T23:30:49.963Z,8.8
2018-07-15T23:32:50.164Z,8.8
2018-07-15T23:34:49.579Z,9.0
2018-07-15T23:36:49.943Z,8.9
2018-07-15T23:38:50.235Z,9.2
2018-07-15T23:40:50.388Z,9.4
2018-07-15T23:42:50.512Z,9.4
2018-07-15T23:44:49.607Z,9.2
2018-07-15T23:46:50.094Z,9.5
2018-07-15T23:48:50.454Z,10.0
2018-07-15T23:50:49.603Z,9.2
2018-07-15T23:52:49.753Z,9.2
2018-07-15T23:54:49.953Z,9.6
2018-07-15T23:56:50.203Z,9.6
2018-07-15T23:58:50.295Z,9.8
